sensor_id;sensor_type;location;lat;lon;timestamp;P1;durP1;ratioP1;P2;durP2;ratioP2
54627;SDS011;40525;55.926;21.066;2024-01-30T00:01:09;28.10;;;11.30;;
54627;SDS011;40525;55.926;21.066;2024-01-30T00:03:37;21.20;;;9.90;;
54627;SDS011;40525;55.926;21.066;2024-01-30T00:06:04;18.20;;;8.20;;
54627;SDS011;40525;55.926;21.066;2024-01-30T00:08:31;23.50;;;10.50;;
54627;SDS011;40525;55.926;21.066;2024-01-30T00:10:58;31.70;;;13.20;;
54627;SDS011;40525;55.926;21.066;2024-01-30T00:13:25;32.20;;;12.90;;
54627;SDS011;40525;55.926;21.066;2024-01-30T00:15:52;36.30;;;14.30;;
54627;SDS011;40525;55.926;21.066;2024-01-30T00:18:20;28.60;;;12.00;;
54627;SDS011;40525;55.926;21.066;2024-01-30T00:20:48;31.50;;;12.70;;
54627;SDS011;40525;55.926;21.066;2024-01-30T00:23:15;34.10;;;12.90;;
54627;SDS011;40525;55.926;21.066;2024-01-30T00:25:42;25.50;;;13.20;;
54627;SDS011;40525;55.926;21.066;2024-01-30T00:28:09;33.70;;;13.20;;
54627;SDS011;40525;55.926;21.066;2024-01-30T00:30:36;32.50;;;14.00;;
54627;SDS011;40525;55.926;21.066;2024-01-30T00:33:03;24.40;;;10.30;;
54627;SDS011;40525;55.926;21.066;2024-01-30T00:35:30;28.40;;;13.50;;
54627;SDS011;40525;55.926;21.066;2024-01-30T00:37:58;31.80;;;14.60;;
54627;SDS011;40525;55.926;21.066;2024-01-30T00:40:25;29.70;;;12.10;;
54627;SDS011;40525;55.926;21.066;2024-01-30T00:42:53;34.20;;;14.00;;
54627;SDS011;40525;55.926;21.066;2024-01-30T00:45:20;32.90;;;12.90;;
54627;SDS011;40525;55.926;21.066;2024-01-30T00:47:47;26.40;;;12.00;;
54627;SDS011;40525;55.926;21.066;2024-01-30T00:50:14;29.10;;;12.30;;
54627;SDS011;40525;55.926;21.066;2024-01-30T00:52:41;28.30;;;12.50;;
54627;SDS011;40525;55.926;21.066;2024-01-30T00:55:12;29.60;;;12.60;;
54627;SDS011;40525;55.926;21.066;2024-01-30T00:57:40;28.40;;;12.60;;
54627;SDS011;40525;55.926;21.066;2024-01-30T01:00:11;30.60;;;14.00;;
54627;SDS011;40525;55.926;21.066;2024-01-30T01:02:39;26.60;;;11.20;;
54627;SDS011;40525;55.926;21.066;2024-01-30T01:05:07;33.60;;;14.30;;
54627;SDS011;40525;55.926;21.066;2024-01-30T01:07:35;34.70;;;15.30;;
54627;SDS011;40525;55.926;21.066;2024-01-30T01:10:05;31.50;;;14.60;;
54627;SDS011;40525;55.926;21.066;2024-01-30T01:12:33;31.50;;;14.10;;
54627;SDS011;40525;55.926;21.066;2024-01-30T01:15:00;32.10;;;13.40;;
54627;SDS011;40525;55.926;21.066;2024-01-30T01:17:27;27.10;;;13.50;;
54627;SDS011;40525;55.926;21.066;2024-01-30T01:19:54;30.80;;;12.20;;
54627;SDS011;40525;55.926;21.066;2024-01-30T01:22:23;30.00;;;13.10;;
54627;SDS011;40525;55.926;21.066;2024-01-30T01:24:51;30.20;;;12.40;;
54627;SDS011;40525;55.926;21.066;2024-01-30T01:27:18;25.20;;;10.60;;
54627;SDS011;40525;55.926;21.066;2024-01-30T01:29:45;26.80;;;12.00;;
54627;SDS011;40525;55.926;21.066;2024-01-30T01:32:12;27.00;;;12.10;;
54627;SDS011;40525;55.926;21.066;2024-01-30T01:34:39;24.10;;;12.00;;
54627;SDS011;40525;55.926;21.066;2024-01-30T01:37:06;26.70;;;11.70;;
54627;SDS011;40525;55.926;21.066;2024-01-30T01:39:34;25.90;;;12.10;;
54627;SDS011;40525;55.926;21.066;2024-01-30T01:42:01;27.30;;;12.50;;
54627;SDS011;40525;55.926;21.066;2024-01-30T01:44:28;22.60;;;11.60;;
54627;SDS011;40525;55.926;21.066;2024-01-30T01:46:55;24.20;;;11.20;;
54627;SDS011;40525;55.926;21.066;2024-01-30T01:49:24;25.50;;;10.50;;
54627;SDS011;40525;55.926;21.066;2024-01-30T01:51:55;25.50;;;11.20;;
54627;SDS011;40525;55.926;21.066;2024-01-30T01:54:25;28.00;;;11.20;;
54627;SDS011;40525;55.926;21.066;2024-01-30T01:56:54;24.50;;;11.40;;
54627;SDS011;40525;55.926;21.066;2024-01-30T01:59:22;26.60;;;12.10;;
54627;SDS011;40525;55.926;21.066;2024-01-30T02:01:51;26.50;;;11.80;;
54627;SDS011;40525;55.926;21.066;2024-01-30T02:04:22;27.40;;;12.60;;
54627;SDS011;40525;55.926;21.066;2024-01-30T02:06:49;26.00;;;12.90;;
54627;SDS011;40525;55.926;21.066;2024-01-30T02:09:17;27.40;;;11.10;;
54627;SDS011;40525;55.926;21.066;2024-01-30T02:11:44;27.10;;;11.70;;
54627;SDS011;40525;55.926;21.066;2024-01-30T02:14:11;31.00;;;12.10;;
54627;SDS011;40525;55.926;21.066;2024-01-30T02:16:37;24.70;;;11.90;;
54627;SDS011;40525;55.926;21.066;2024-01-30T02:19:05;24.40;;;11.20;;
54627;SDS011;40525;55.926;21.066;2024-01-30T02:21:33;23.30;;;11.40;;
54627;SDS011;40525;55.926;21.066;2024-01-30T02:24:00;26.00;;;10.40;;
54627;SDS011;40525;55.926;21.066;2024-01-30T02:26:29;26.20;;;10.80;;
54627;SDS011;40525;55.926;21.066;2024-01-30T02:28:56;25.70;;;12.10;;
54627;SDS011;40525;55.926;21.066;2024-01-30T02:31:24;28.60;;;11.50;;
54627;SDS011;40525;55.926;21.066;2024-01-30T02:33:52;22.70;;;11.10;;
54627;SDS011;40525;55.926;21.066;2024-01-30T02:36:19;23.70;;;11.10;;
54627;SDS011;40525;55.926;21.066;2024-01-30T02:38:46;29.10;;;12.20;;
54627;SDS011;40525;55.926;21.066;2024-01-30T02:41:14;25.40;;;12.30;;
54627;SDS011;40525;55.926;21.066;2024-01-30T02:43:41;28.90;;;12.40;;
54627;SDS011;40525;55.926;21.066;2024-01-30T02:46:08;32.20;;;13.50;;
54627;SDS011;40525;55.926;21.066;2024-01-30T02:48:35;31.30;;;12.60;;
54627;SDS011;40525;55.926;21.066;2024-01-30T02:51:02;29.40;;;12.90;;
54627;SDS011;40525;55.926;21.066;2024-01-30T02:53:29;28.00;;;13.30;;
54627;SDS011;40525;55.926;21.066;2024-01-30T02:55:56;26.90;;;12.20;;
54627;SDS011;40525;55.926;21.066;2024-01-30T02:58:24;27.70;;;12.20;;
54627;SDS011;40525;55.926;21.066;2024-01-30T03:00:51;26.00;;;12.50;;
54627;SDS011;40525;55.926;21.066;2024-01-30T03:03:18;28.00;;;12.10;;
54627;SDS011;40525;55.926;21.066;2024-01-30T03:05:45;29.60;;;13.10;;
54627;SDS011;40525;55.926;21.066;2024-01-30T03:08:13;28.80;;;12.00;;
54627;SDS011;40525;55.926;21.066;2024-01-30T03:10:40;23.90;;;11.50;;
54627;SDS011;40525;55.926;21.066;2024-01-30T03:13:07;22.70;;;11.60;;
54627;SDS011;40525;55.926;21.066;2024-01-30T03:15:34;23.80;;;11.40;;
54627;SDS011;40525;55.926;21.066;2024-01-30T03:18:01;26.90;;;12.40;;
54627;SDS011;40525;55.926;21.066;2024-01-30T03:20:30;26.00;;;12.30;;
54627;SDS011;40525;55.926;21.066;2024-01-30T03:22:59;34.60;;;14.30;;
54627;SDS011;40525;55.926;21.066;2024-01-30T03:25:27;34.60;;;14.10;;
54627;SDS011;40525;55.926;21.066;2024-01-30T03:27:54;28.70;;;13.30;;
54627;SDS011;40525;55.926;21.066;2024-01-30T03:30:22;27.70;;;14.70;;
54627;SDS011;40525;55.926;21.066;2024-01-30T03:32:49;33.50;;;13.60;;
54627;SDS011;40525;55.926;21.066;2024-01-30T03:35:18;32.00;;;14.20;;
54627;SDS011;40525;55.926;21.066;2024-01-30T03:37:46;36.00;;;14.10;;
54627;SDS011;40525;55.926;21.066;2024-01-30T03:40:12;32.10;;;14.00;;
54627;SDS011;40525;55.926;21.066;2024-01-30T03:42:40;33.00;;;14.30;;
54627;SDS011;40525;55.926;21.066;2024-01-30T03:45:07;28.30;;;13.80;;
54627;SDS011;40525;55.926;21.066;2024-01-30T03:47:35;33.40;;;14.60;;
54627;SDS011;40525;55.926;21.066;2024-01-30T03:50:02;29.70;;;12.80;;
54627;SDS011;40525;55.926;21.066;2024-01-30T03:52:31;39.30;;;14.70;;
54627;SDS011;40525;55.926;21.066;2024-01-30T03:54:58;27.20;;;13.00;;
54627;SDS011;40525;55.926;21.066;2024-01-30T03:57:26;29.40;;;13.70;;
54627;SDS011;40525;55.926;21.066;2024-01-30T03:59:52;29.90;;;12.90;;
54627;SDS011;40525;55.926;21.066;2024-01-30T04:02:20;28.60;;;12.50;;
54627;SDS011;40525;55.926;21.066;2024-01-30T04:04:47;31.70;;;12.30;;
54627;SDS011;40525;55.926;21.066;2024-01-30T04:07:15;29.40;;;13.40;;
54627;SDS011;40525;55.926;21.066;2024-01-30T04:09:42;30.70;;;13.10;;
54627;SDS011;40525;55.926;21.066;2024-01-30T04:12:09;28.60;;;13.20;;
54627;SDS011;40525;55.926;21.066;2024-01-30T04:14:37;28.10;;;12.20;;
54627;SDS011;40525;55.926;21.066;2024-01-30T04:17:04;27.30;;;12.10;;
54627;SDS011;40525;55.926;21.066;2024-01-30T04:19:31;26.60;;;12.10;;
54627;SDS011;40525;55.926;21.066;2024-01-30T04:21:59;33.20;;;12.80;;
54627;SDS011;40525;55.926;21.066;2024-01-30T04:24:26;27.40;;;12.00;;
54627;SDS011;40525;55.926;21.066;2024-01-30T04:26:53;30.10;;;12.80;;
54627;SDS011;40525;55.926;21.066;2024-01-30T04:29:20;28.70;;;12.60;;
54627;SDS011;40525;55.926;21.066;2024-01-30T04:31:49;28.60;;;12.80;;
54627;SDS011;40525;55.926;21.066;2024-01-30T04:34:16;28.30;;;13.00;;
54627;SDS011;40525;55.926;21.066;2024-01-30T04:36:44;33.00;;;13.70;;
54627;SDS011;40525;55.926;21.066;2024-01-30T04:39:12;31.40;;;14.10;;
54627;SDS011;40525;55.926;21.066;2024-01-30T04:41:39;31.90;;;14.00;;
54627;SDS011;40525;55.926;21.066;2024-01-30T04:44:06;31.60;;;14.30;;
54627;SDS011;40525;55.926;21.066;2024-01-30T04:46:33;39.10;;;15.10;;
54627;SDS011;40525;55.926;21.066;2024-01-30T04:49:03;28.40;;;13.70;;
54627;SDS011;40525;55.926;21.066;2024-01-30T04:51:30;34.50;;;14.20;;
54627;SDS011;40525;55.926;21.066;2024-01-30T04:53:57;28.60;;;13.70;;
54627;SDS011;40525;55.926;21.066;2024-01-30T04:56:24;28.20;;;12.90;;
54627;SDS011;40525;55.926;21.066;2024-01-30T04:58:52;31.50;;;13.00;;
54627;SDS011;40525;55.926;21.066;2024-01-30T05:01:19;31.00;;;14.10;;
54627;SDS011;40525;55.926;21.066;2024-01-30T05:03:46;32.10;;;14.80;;
54627;SDS011;40525;55.926;21.066;2024-01-30T05:06:23;31.00;;;14.00;;
54627;SDS011;40525;55.926;21.066;2024-01-30T05:08:53;38.60;;;15.80;;
54627;SDS011;40525;55.926;21.066;2024-01-30T05:11:20;35.00;;;15.50;;
54627;SDS011;40525;55.926;21.066;2024-01-30T05:13:48;37.30;;;14.30;;
54627;SDS011;40525;55.926;21.066;2024-01-30T05:16:15;34.70;;;15.40;;
54627;SDS011;40525;55.926;21.066;2024-01-30T05:18:42;36.40;;;15.30;;
54627;SDS011;40525;55.926;21.066;2024-01-30T05:21:10;25.70;;;10.80;;
54627;SDS011;40525;55.926;21.066;2024-01-30T05:23:37;36.70;;;15.40;;
54627;SDS011;40525;55.926;21.066;2024-01-30T05:26:04;35.90;;;15.80;;
54627;SDS011;40525;55.926;21.066;2024-01-30T05:28:31;39.10;;;15.80;;
54627;SDS011;40525;55.926;21.066;2024-01-30T05:30:59;40.40;;;16.50;;
54627;SDS011;40525;55.926;21.066;2024-01-30T05:33:26;38.00;;;15.80;;
54627;SDS011;40525;55.926;21.066;2024-01-30T05:35:54;34.50;;;14.90;;
54627;SDS011;40525;55.926;21.066;2024-01-30T05:38:21;34.80;;;15.00;;
54627;SDS011;40525;55.926;21.066;2024-01-30T05:40:48;38.30;;;15.20;;
54627;SDS011;40525;55.926;21.066;2024-01-30T05:43:15;36.30;;;14.80;;
54627;SDS011;40525;55.926;21.066;2024-01-30T05:45:42;40.00;;;15.50;;
54627;SDS011;40525;55.926;21.066;2024-01-30T05:48:09;43.20;;;15.40;;
54627;SDS011;40525;55.926;21.066;2024-01-30T05:50:37;35.90;;;16.50;;
54627;SDS011;40525;55.926;21.066;2024-01-30T05:53:04;41.50;;;17.20;;
54627;SDS011;40525;55.926;21.066;2024-01-30T05:55:31;37.40;;;16.10;;
54627;SDS011;40525;55.926;21.066;2024-01-30T05:57:58;39.00;;;16.90;;
54627;SDS011;40525;55.926;21.066;2024-01-30T06:00:25;35.80;;;15.50;;
54627;SDS011;40525;55.926;21.066;2024-01-30T06:02:52;31.00;;;13.90;;
54627;SDS011;40525;55.926;21.066;2024-01-30T06:05:19;32.60;;;14.30;;
54627;SDS011;40525;55.926;21.066;2024-01-30T06:07:47;34.20;;;14.70;;
54627;SDS011;40525;55.926;21.066;2024-01-30T06:10:14;28.00;;;13.60;;
54627;SDS011;40525;55.926;21.066;2024-01-30T06:12:41;34.40;;;14.10;;
54627;SDS011;40525;55.926;21.066;2024-01-30T06:15:08;30.90;;;14.50;;
54627;SDS011;40525;55.926;21.066;2024-01-30T06:17:35;27.50;;;13.80;;
54627;SDS011;40525;55.926;21.066;2024-01-30T06:20:03;26.30;;;12.40;;
54627;SDS011;40525;55.926;21.066;2024-01-30T06:22:30;29.80;;;13.40;;
54627;SDS011;40525;55.926;21.066;2024-01-30T06:24:57;29.90;;;14.10;;
54627;SDS011;40525;55.926;21.066;2024-01-30T06:27:25;24.20;;;12.40;;
54627;SDS011;40525;55.926;21.066;2024-01-30T06:29:52;25.70;;;12.40;;
54627;SDS011;40525;55.926;21.066;2024-01-30T06:32:19;26.90;;;13.20;;
54627;SDS011;40525;55.926;21.066;2024-01-30T06:34:46;28.80;;;11.10;;
54627;SDS011;40525;55.926;21.066;2024-01-30T06:37:13;31.70;;;13.00;;
54627;SDS011;40525;55.926;21.066;2024-01-30T06:39:40;29.30;;;13.20;;
54627;SDS011;40525;55.926;21.066;2024-01-30T06:42:07;26.20;;;12.40;;
54627;SDS011;40525;55.926;21.066;2024-01-30T06:44:34;25.80;;;13.50;;
54627;SDS011;40525;55.926;21.066;2024-01-30T06:47:02;29.60;;;12.50;;
54627;SDS011;40525;55.926;21.066;2024-01-30T06:49:29;25.90;;;12.10;;
54627;SDS011;40525;55.926;21.066;2024-01-30T06:51:56;30.30;;;13.10;;
54627;SDS011;40525;55.926;21.066;2024-01-30T06:54:23;30.40;;;13.40;;
54627;SDS011;40525;55.926;21.066;2024-01-30T06:56:50;26.60;;;12.40;;
54627;SDS011;40525;55.926;21.066;2024-01-30T06:59:17;31.70;;;13.70;;
54627;SDS011;40525;55.926;21.066;2024-01-30T07:01:45;35.00;;;15.00;;
54627;SDS011;40525;55.926;21.066;2024-01-30T07:04:12;31.00;;;14.30;;
54627;SDS011;40525;55.926;21.066;2024-01-30T07:06:40;32.30;;;14.60;;
54627;SDS011;40525;55.926;21.066;2024-01-30T07:09:08;40.40;;;14.30;;
54627;SDS011;40525;55.926;21.066;2024-01-30T07:11:38;34.00;;;15.10;;
54627;SDS011;40525;55.926;21.066;2024-01-30T07:14:05;35.90;;;16.40;;
54627;SDS011;40525;55.926;21.066;2024-01-30T07:16:32;41.10;;;16.00;;
54627;SDS011;40525;55.926;21.066;2024-01-30T07:18:59;41.60;;;16.40;;
54627;SDS011;40525;55.926;21.066;2024-01-30T07:21:26;42.10;;;17.50;;
54627;SDS011;40525;55.926;21.066;2024-01-30T07:23:55;35.50;;;15.50;;
54627;SDS011;40525;55.926;21.066;2024-01-30T07:26:22;36.80;;;15.40;;
54627;SDS011;40525;55.926;21.066;2024-01-30T07:28:50;35.90;;;16.70;;
54627;SDS011;40525;55.926;21.066;2024-01-30T07:31:17;46.50;;;20.80;;
54627;SDS011;40525;55.926;21.066;2024-01-30T07:33:47;43.20;;;18.30;;
54627;SDS011;40525;55.926;21.066;2024-01-30T07:36:15;36.60;;;17.20;;
54627;SDS011;40525;55.926;21.066;2024-01-30T07:38:42;35.20;;;15.50;;
54627;SDS011;40525;55.926;21.066;2024-01-30T07:41:09;33.30;;;14.80;;
54627;SDS011;40525;55.926;21.066;2024-01-30T07:43:36;26.90;;;13.30;;
54627;SDS011;40525;55.926;21.066;2024-01-30T07:46:05;35.30;;;15.60;;
54627;SDS011;40525;55.926;21.066;2024-01-30T07:48:33;30.10;;;15.90;;
54627;SDS011;40525;55.926;21.066;2024-01-30T07:51:00;35.20;;;15.30;;
54627;SDS011;40525;55.926;21.066;2024-01-30T07:53:29;29.20;;;13.60;;
54627;SDS011;40525;55.926;21.066;2024-01-30T07:55:56;33.10;;;14.80;;
54627;SDS011;40525;55.926;21.066;2024-01-30T07:58:24;34.00;;;14.40;;
54627;SDS011;40525;55.926;21.066;2024-01-30T08:00:54;36.40;;;16.10;;
54627;SDS011;40525;55.926;21.066;2024-01-30T08:03:25;33.00;;;15.30;;
54627;SDS011;40525;55.926;21.066;2024-01-30T08:05:52;29.70;;;14.40;;
54627;SDS011;40525;55.926;21.066;2024-01-30T08:08:20;32.10;;;15.30;;
54627;SDS011;40525;55.926;21.066;2024-01-30T08:10:47;37.00;;;15.90;;
54627;SDS011;40525;55.926;21.066;2024-01-30T08:13:15;33.60;;;14.80;;
54627;SDS011;40525;55.926;21.066;2024-01-30T08:15:43;37.20;;;14.90;;
54627;SDS011;40525;55.926;21.066;2024-01-30T08:18:10;28.70;;;14.00;;
54627;SDS011;40525;55.926;21.066;2024-01-30T08:20:37;36.80;;;16.30;;
54627;SDS011;40525;55.926;21.066;2024-01-30T08:23:04;33.90;;;15.60;;
54627;SDS011;40525;55.926;21.066;2024-01-30T08:25:31;35.10;;;15.40;;
54627;SDS011;40525;55.926;21.066;2024-01-30T08:27:58;35.10;;;15.50;;
54627;SDS011;40525;55.926;21.066;2024-01-30T08:30:27;33.00;;;15.40;;
54627;SDS011;40525;55.926;21.066;2024-01-30T08:32:54;33.30;;;15.60;;
54627;SDS011;40525;55.926;21.066;2024-01-30T08:35:21;32.30;;;15.40;;
54627;SDS011;40525;55.926;21.066;2024-01-30T08:37:48;37.10;;;16.20;;
54627;SDS011;40525;55.926;21.066;2024-01-30T08:40:16;36.70;;;16.20;;
54627;SDS011;40525;55.926;21.066;2024-01-30T08:42:43;37.90;;;16.40;;
54627;SDS011;40525;55.926;21.066;2024-01-30T08:45:10;37.60;;;16.00;;
54627;SDS011;40525;55.926;21.066;2024-01-30T08:47:37;33.60;;;15.30;;
54627;SDS011;40525;55.926;21.066;2024-01-30T08:50:05;33.20;;;15.60;;
54627;SDS011;40525;55.926;21.066;2024-01-30T08:52:32;33.30;;;14.70;;
54627;SDS011;40525;55.926;21.066;2024-01-30T08:55:00;36.20;;;15.50;;
54627;SDS011;40525;55.926;21.066;2024-01-30T08:57:28;31.80;;;15.20;;
54627;SDS011;40525;55.926;21.066;2024-01-30T08:59:55;34.20;;;15.70;;
54627;SDS011;40525;55.926;21.066;2024-01-30T09:02:23;39.00;;;17.10;;
54627;SDS011;40525;55.926;21.066;2024-01-30T09:04:50;39.90;;;17.20;;
54627;SDS011;40525;55.926;21.066;2024-01-30T09:07:17;38.30;;;16.80;;
54627;SDS011;40525;55.926;21.066;2024-01-30T09:09:44;40.40;;;18.50;;
54627;SDS011;40525;55.926;21.066;2024-01-30T09:12:12;35.70;;;17.80;;
54627;SDS011;40525;55.926;21.066;2024-01-30T09:14:39;39.30;;;15.70;;
54627;SDS011;40525;55.926;21.066;2024-01-30T09:17:08;35.70;;;15.90;;
54627;SDS011;40525;55.926;21.066;2024-01-30T09:19:35;36.30;;;15.80;;
54627;SDS011;40525;55.926;21.066;2024-01-30T09:22:03;36.30;;;16.50;;
54627;SDS011;40525;55.926;21.066;2024-01-30T09:24:31;38.80;;;17.90;;
54627;SDS011;40525;55.926;21.066;2024-01-30T09:26:58;37.50;;;16.20;;
54627;SDS011;40525;55.926;21.066;2024-01-30T09:29:25;34.50;;;15.90;;
54627;SDS011;40525;55.926;21.066;2024-01-30T09:31:53;40.70;;;17.10;;
54627;SDS011;40525;55.926;21.066;2024-01-30T09:34:20;30.50;;;14.60;;
54627;SDS011;40525;55.926;21.066;2024-01-30T09:36:48;23.80;;;11.50;;
54627;SDS011;40525;55.926;21.066;2024-01-30T09:39:15;27.90;;;12.10;;
54627;SDS011;40525;55.926;21.066;2024-01-30T09:41:51;32.70;;;15.50;;
54627;SDS011;40525;55.926;21.066;2024-01-30T09:44:41;36.30;;;15.10;;
54627;SDS011;40525;55.926;21.066;2024-01-30T09:47:10;32.30;;;15.00;;
54627;SDS011;40525;55.926;21.066;2024-01-30T09:49:38;32.90;;;13.50;;
54627;SDS011;40525;55.926;21.066;2024-01-30T09:52:08;34.90;;;14.40;;
54627;SDS011;40525;55.926;21.066;2024-01-30T09:54:35;35.60;;;16.20;;
54627;SDS011;40525;55.926;21.066;2024-01-30T09:57:04;27.60;;;13.10;;
54627;SDS011;40525;55.926;21.066;2024-01-30T09:59:31;37.40;;;15.10;;
54627;SDS011;40525;55.926;21.066;2024-01-30T10:01:58;30.30;;;14.10;;
54627;SDS011;40525;55.926;21.066;2024-01-30T10:04:26;38.70;;;16.60;;
54627;SDS011;40525;55.926;21.066;2024-01-30T10:06:53;40.20;;;17.20;;
54627;SDS011;40525;55.926;21.066;2024-01-30T10:09:21;38.80;;;17.10;;
54627;SDS011;40525;55.926;21.066;2024-01-30T10:11:48;22.30;;;11.40;;
54627;SDS011;40525;55.926;21.066;2024-01-30T10:14:15;30.90;;;13.80;;
54627;SDS011;40525;55.926;21.066;2024-01-30T10:16:42;34.40;;;14.70;;
54627;SDS011;40525;55.926;21.066;2024-01-30T10:19:12;23.40;;;10.50;;
54627;SDS011;40525;55.926;21.066;2024-01-30T10:21:39;36.60;;;15.80;;
54627;SDS011;40525;55.926;21.066;2024-01-30T10:24:07;25.10;;;12.30;;
54627;SDS011;40525;55.926;21.066;2024-01-30T10:26:34;41.50;;;17.90;;
54627;SDS011;40525;55.926;21.066;2024-01-30T10:29:01;31.40;;;15.70;;
54627;SDS011;40525;55.926;21.066;2024-01-30T10:31:29;34.80;;;16.00;;
54627;SDS011;40525;55.926;21.066;2024-01-30T10:33:56;35.70;;;16.20;;
54627;SDS011;40525;55.926;21.066;2024-01-30T10:36:40;36.20;;;15.00;;
54627;SDS011;40525;55.926;21.066;2024-01-30T10:39:10;25.00;;;10.90;;
54627;SDS011;40525;55.926;21.066;2024-01-30T10:41:44;39.00;;;15.80;;
54627;SDS011;40525;55.926;21.066;2024-01-30T10:44:18;27.00;;;13.10;;
54627;SDS011;40525;55.926;21.066;2024-01-30T10:46:49;30.30;;;13.90;;
54627;SDS011;40525;55.926;21.066;2024-01-30T10:49:23;34.40;;;16.00;;
54627;SDS011;40525;55.926;21.066;2024-01-30T10:51:51;30.40;;;13.80;;
54627;SDS011;40525;55.926;21.066;2024-01-30T10:54:19;25.90;;;11.50;;
54627;SDS011;40525;55.926;21.066;2024-01-30T10:56:47;32.00;;;13.40;;
54627;SDS011;40525;55.926;21.066;2024-01-30T10:59:15;31.80;;;12.60;;
54627;SDS011;40525;55.926;21.066;2024-01-30T11:01:43;35.40;;;14.50;;
54627;SDS011;40525;55.926;21.066;2024-01-30T11:04:11;27.40;;;12.60;;
54627;SDS011;40525;55.926;21.066;2024-01-30T11:06:41;28.40;;;13.80;;
54627;SDS011;40525;55.926;21.066;2024-01-30T11:09:12;29.70;;;12.90;;
54627;SDS011;40525;55.926;21.066;2024-01-30T11:11:49;29.50;;;13.10;;
54627;SDS011;40525;55.926;21.066;2024-01-30T11:14:29;20.50;;;10.50;;
54627;SDS011;40525;55.926;21.066;2024-01-30T11:16:58;35.60;;;15.30;;
54627;SDS011;40525;55.926;21.066;2024-01-30T11:19:26;33.00;;;14.50;;
54627;SDS011;40525;55.926;21.066;2024-01-30T11:21:55;30.30;;;14.20;;
54627;SDS011;40525;55.926;21.066;2024-01-30T11:24:24;37.60;;;16.10;;
54627;SDS011;40525;55.926;21.066;2024-01-30T11:26:58;35.60;;;14.90;;
54627;SDS011;40525;55.926;21.066;2024-01-30T11:29:29;26.80;;;12.80;;
54627;SDS011;40525;55.926;21.066;2024-01-30T11:31:57;29.50;;;13.50;;
54627;SDS011;40525;55.926;21.066;2024-01-30T11:34:26;33.10;;;14.90;;
54627;SDS011;40525;55.926;21.066;2024-01-30T11:37:02;26.80;;;12.80;;
54627;SDS011;40525;55.926;21.066;2024-01-30T11:39:34;30.20;;;14.20;;
54627;SDS011;40525;55.926;21.066;2024-01-30T11:42:04;34.00;;;16.00;;
54627;SDS011;40525;55.926;21.066;2024-01-30T11:44:35;30.50;;;13.90;;
54627;SDS011;40525;55.926;21.066;2024-01-30T11:47:02;28.00;;;13.00;;
54627;SDS011;40525;55.926;21.066;2024-01-30T11:49:30;27.20;;;13.70;;
54627;SDS011;40525;55.926;21.066;2024-01-30T11:52:01;31.50;;;13.70;;
54627;SDS011;40525;55.926;21.066;2024-01-30T11:54:28;32.30;;;15.50;;
54627;SDS011;40525;55.926;21.066;2024-01-30T11:56:57;33.50;;;15.90;;
54627;SDS011;40525;55.926;21.066;2024-01-30T11:59:24;24.10;;;12.10;;
54627;SDS011;40525;55.926;21.066;2024-01-30T12:01:52;34.20;;;15.10;;
54627;SDS011;40525;55.926;21.066;2024-01-30T12:04:19;33.10;;;14.80;;
54627;SDS011;40525;55.926;21.066;2024-01-30T12:06:50;29.20;;;13.50;;
54627;SDS011;40525;55.926;21.066;2024-01-30T12:09:18;24.90;;;11.30;;
54627;SDS011;40525;55.926;21.066;2024-01-30T12:11:45;37.40;;;16.20;;
54627;SDS011;40525;55.926;21.066;2024-01-30T12:14:13;33.30;;;14.30;;
54627;SDS011;40525;55.926;21.066;2024-01-30T12:16:41;32.30;;;14.50;;
54627;SDS011;40525;55.926;21.066;2024-01-30T12:19:08;29.40;;;12.40;;
54627;SDS011;40525;55.926;21.066;2024-01-30T12:21:37;30.60;;;13.40;;
54627;SDS011;40525;55.926;21.066;2024-01-30T12:24:05;31.20;;;14.00;;
54627;SDS011;40525;55.926;21.066;2024-01-30T12:26:34;23.80;;;10.90;;
54627;SDS011;40525;55.926;21.066;2024-01-30T12:29:03;30.00;;;14.40;;
54627;SDS011;40525;55.926;21.066;2024-01-30T12:31:32;32.20;;;15.20;;
54627;SDS011;40525;55.926;21.066;2024-01-30T12:34:00;33.80;;;15.50;;
54627;SDS011;40525;55.926;21.066;2024-01-30T12:36:28;33.10;;;15.90;;
54627;SDS011;40525;55.926;21.066;2024-01-30T12:38:56;27.00;;;13.30;;
54627;SDS011;40525;55.926;21.066;2024-01-30T12:41:24;32.80;;;15.00;;
54627;SDS011;40525;55.926;21.066;2024-01-30T12:43:58;32.20;;;15.00;;
54627;SDS011;40525;55.926;21.066;2024-01-30T12:46:28;36.00;;;14.80;;
54627;SDS011;40525;55.926;21.066;2024-01-30T12:48:56;23.90;;;10.80;;
54627;SDS011;40525;55.926;21.066;2024-01-30T12:51:24;28.60;;;12.20;;
54627;SDS011;40525;55.926;21.066;2024-01-30T12:53:51;31.20;;;13.40;;
54627;SDS011;40525;55.926;21.066;2024-01-30T12:56:18;29.50;;;14.30;;
54627;SDS011;40525;55.926;21.066;2024-01-30T12:58:45;25.00;;;11.50;;
54627;SDS011;40525;55.926;21.066;2024-01-30T13:01:17;21.40;;;10.10;;
54627;SDS011;40525;55.926;21.066;2024-01-30T13:03:45;35.90;;;15.20;;
54627;SDS011;40525;55.926;21.066;2024-01-30T13:06:12;31.70;;;13.50;;
54627;SDS011;40525;55.926;21.066;2024-01-30T13:08:39;30.50;;;14.20;;
54627;SDS011;40525;55.926;21.066;2024-01-30T13:11:06;35.40;;;13.90;;
54627;SDS011;40525;55.926;21.066;2024-01-30T13:13:43;31.50;;;15.30;;
54627;SDS011;40525;55.926;21.066;2024-01-30T13:16:10;30.60;;;14.80;;
54627;SDS011;40525;55.926;21.066;2024-01-30T13:18:37;30.90;;;13.80;;
54627;SDS011;40525;55.926;21.066;2024-01-30T13:21:04;32.80;;;14.90;;
54627;SDS011;40525;55.926;21.066;2024-01-30T13:23:31;32.10;;;13.00;;
54627;SDS011;40525;55.926;21.066;2024-01-30T13:25:58;30.70;;;13.50;;
54627;SDS011;40525;55.926;21.066;2024-01-30T13:28:25;26.20;;;13.00;;
54627;SDS011;40525;55.926;21.066;2024-01-30T13:30:53;31.40;;;12.80;;
54627;SDS011;40525;55.926;21.066;2024-01-30T13:33:23;31.50;;;14.10;;
54627;SDS011;40525;55.926;21.066;2024-01-30T13:35:51;32.10;;;14.70;;
54627;SDS011;40525;55.926;21.066;2024-01-30T13:38:18;31.10;;;13.10;;
54627;SDS011;40525;55.926;21.066;2024-01-30T13:40:45;34.50;;;15.40;;
54627;SDS011;40525;55.926;21.066;2024-01-30T13:43:12;29.40;;;12.00;;
54627;SDS011;40525;55.926;21.066;2024-01-30T13:45:39;37.60;;;14.70;;
54627;SDS011;40525;55.926;21.066;2024-01-30T13:48:06;31.10;;;14.60;;
54627;SDS011;40525;55.926;21.066;2024-01-30T13:50:33;28.40;;;11.90;;
54627;SDS011;40525;55.926;21.066;2024-01-30T13:53:02;26.20;;;11.00;;
54627;SDS011;40525;55.926;21.066;2024-01-30T13:55:31;24.70;;;11.50;;
54627;SDS011;40525;55.926;21.066;2024-01-30T13:57:58;28.90;;;11.90;;
54627;SDS011;40525;55.926;21.066;2024-01-30T14:00:25;30.50;;;14.30;;
54627;SDS011;40525;55.926;21.066;2024-01-30T14:02:52;30.80;;;14.40;;
54627;SDS011;40525;55.926;21.066;2024-01-30T14:05:24;30.00;;;14.30;;
54627;SDS011;40525;55.926;21.066;2024-01-30T14:07:52;31.70;;;13.70;;
54627;SDS011;40525;55.926;21.066;2024-01-30T14:10:19;32.60;;;14.40;;
54627;SDS011;40525;55.926;21.066;2024-01-30T14:12:46;29.60;;;13.30;;